createdAt,value
2023-03-08T00:02:33.927Z,95503.34
2023-03-08T00:05:01.872Z,95497.34
2023-03-08T00:07:28.526Z,95501.56
2023-03-08T00:09:55.143Z,95498.88
2023-03-08T00:12:22.846Z,95497.22
2023-03-08T00:14:50.087Z,95498.78
2023-03-08T00:17:17.967Z,95498.78
2023-03-08T00:19:44.981Z,95493.69
2023-03-08T00:22:12.301Z,95504.34
2023-03-08T00:24:38.991Z,95489.66
2023-03-08T00:27:05.585Z,95485.16
2023-03-08T00:29:32.753Z,95480.91
2023-03-08T00:31:59.351Z,95479.66
2023-03-08T00:34:26.062Z,95463.81
2023-03-08T00:36:52.646Z,95476.22
2023-03-08T00:39:19.390Z,95474.63
2023-03-08T00:41:45.999Z,95480.81
2023-03-08T00:44:13.394Z,95474.63
2023-03-08T00:46:40.160Z,95474.38
2023-03-08T00:49:06.853Z,95477.63
2023-03-08T00:51:33.431Z,95474.72
2023-03-08T00:54:00.037Z,95473.31
2023-03-08T00:56:27.569Z,95469.63
2023-03-08T00:58:54.276Z,95466.94
2023-03-08T01:01:20.985Z,95464.44
2023-03-08T01:03:49.542Z,95460.91
2023-03-08T01:06:16.526Z,95467.53
2023-03-08T01:08:44.442Z,95458.81
2023-03-08T01:11:37.370Z,95461.13
2023-03-08T01:14:05.849Z,95446.47
2023-03-08T01:16:33.942Z,95438.69
2023-03-08T01:19:01.694Z,95436.09
2023-03-08T01:21:29.828Z,95434.44
2023-03-08T01:23:56.657Z,95430.09
2023-03-08T01:26:25.721Z,95427.22
2023-03-08T01:28:55.902Z,95433.06
2023-03-08T01:31:26.321Z,95422.34
2023-03-08T01:33:54.501Z,95425.97
2023-03-08T01:36:24.141Z,95424.94
2023-03-08T01:38:51.284Z,95423.91
2023-03-08T01:41:24.430Z,95415.97
2023-03-08T01:43:51.758Z,95412.41
2023-03-08T01:46:27.685Z,95413.19
2023-03-08T01:49:25.687Z,95405.41
2023-03-08T01:52:25.480Z,95406.34
2023-03-08T01:55:01.201Z,95394.13
2023-03-08T01:57:50.053Z,95387.47
2023-03-08T02:00:22.941Z,95384.34
2023-03-08T02:03:07.519Z,95374.69
2023-03-08T02:05:37.265Z,95372.94
2023-03-08T02:08:13.508Z,95367.66
2023-03-08T02:10:41.531Z,95362.06
2023-03-08T02:13:10.794Z,95354.97
2023-03-08T02:15:40.958Z,95361.47
2023-03-08T02:18:08.028Z,95350.31
2023-03-08T02:20:38.012Z,95355.50
2023-03-08T02:23:16.645Z,95353.84
2023-03-08T02:25:57.072Z,95354.78
2023-03-08T02:28:26.105Z,95342.38
2023-03-08T02:30:54.198Z,95334.94
2023-03-08T02:33:20.840Z,95340.84
2023-03-08T02:35:49.758Z,95334.19
2023-03-08T02:38:18.248Z,95337.63
2023-03-08T02:40:45.425Z,95337.53
2023-03-08T02:43:12.006Z,95326.97
2023-03-08T02:45:40.295Z,95333.75
2023-03-08T02:48:08.515Z,95325.66
2023-03-08T02:50:36.553Z,95322.69
2023-03-08T02:53:05.120Z,95324.34
2023-03-08T02:55:36.142Z,95324.56
2023-03-08T02:58:09.441Z,95316.38
2023-03-08T03:00:37.640Z,95317.63
2023-03-08T03:03:04.629Z,95311.28
2023-03-08T03:05:31.374Z,95313.06
2023-03-08T03:08:00.210Z,95307.41
2023-03-08T03:10:28.641Z,95292.03
2023-03-08T03:12:56.002Z,95302.22
2023-03-08T03:15:26.152Z,95302.22
2023-03-08T03:17:56.881Z,95290.78
2023-03-08T03:20:23.555Z,95288.19
2023-03-08T03:22:50.151Z,95286.53
2023-03-08T03:25:18.815Z,95287.00
2023-03-08T03:27:46.816Z,95288.41
2023-03-08T03:30:14.019Z,95278.75
2023-03-08T03:32:40.786Z,95280.25
2023-03-08T03:35:08.629Z,95276.81
2023-03-08T03:37:36.625Z,95270.44
2023-03-08T03:40:05.097Z,95265.50
2023-03-08T03:42:31.790Z,95262.91
2023-03-08T03:45:11.776Z,95256.72
2023-03-08T03:47:39.310Z,95262.34
2023-03-08T03:50:08.736Z,95252.88
2023-03-08T03:52:58.351Z,95258.66
2023-03-08T03:55:25.175Z,95263.84
2023-03-08T03:57:52.016Z,95257.25
2023-03-08T04:00:19.202Z,95252.72
2023-03-08T04:02:58.974Z,95249.34
2023-03-08T04:05:26.622Z,95246.22
2023-03-08T04:07:54.217Z,95253.34
2023-03-08T04:10:23.767Z,95248.81
2023-03-08T04:12:53.024Z,95254.00
2023-03-08T04:15:21.489Z,95245.94
2023-03-08T04:17:48.408Z,95240.31
2023-03-08T04:20:15.461Z,95244.94
2023-03-08T04:22:49.802Z,95238.72
2023-03-08T04:25:22.935Z,95245.31
2023-03-08T04:27:55.090Z,95235.53
2023-03-08T04:30:21.973Z,95231.50
2023-03-08T04:32:49.237Z,95234.44
2023-03-08T04:35:16.481Z,95226.75
2023-03-08T04:37:47.642Z,95222.31
2023-03-08T04:40:17.846Z,95227.34
2023-03-08T04:42:51.642Z,95224.28
2023-03-08T04:45:24.101Z,95220.75
2023-03-08T04:47:53.392Z,95226.88
2023-03-08T04:50:20.444Z,95214.72
2023-03-08T04:52:47.578Z,95210.63
2023-03-08T04:55:14.591Z,95214.63
2023-03-08T04:57:41.150Z,95204.97
2023-03-08T05:00:08.591Z,95199.25
2023-03-08T05:02:38.245Z,95201.00
2023-03-08T05:05:17.566Z,95193.28
2023-03-08T05:07:44.893Z,95176.25
2023-03-08T05:10:12.033Z,95177.94
2023-03-08T05:12:40.368Z,95176.91
2023-03-08T05:15:07.314Z,95173.28
2023-03-08T05:17:34.687Z,95167.91
2023-03-08T05:20:01.345Z,95158.47
2023-03-08T05:22:37.215Z,95160.50
2023-03-08T05:25:12.157Z,95150.31
2023-03-08T05:27:39.060Z,95140.75
2023-03-08T05:30:07.247Z,95136.50
2023-03-08T05:32:33.936Z,95127.91
2023-03-08T05:35:00.982Z,95120.84
2023-03-08T05:37:33.672Z,95116.69
2023-03-08T05:40:03.529Z,95108.59
2023-03-08T05:42:31.968Z,95114.34
2023-03-08T05:44:58.763Z,95118.81
2023-03-08T05:47:30.344Z,95115.44
2023-03-08T05:49:57.235Z,95095.25
2023-03-08T05:52:23.911Z,95096.16
2023-03-08T05:54:50.605Z,95100.81
2023-03-08T05:57:19.470Z,95105.16
2023-03-08T05:59:47.250Z,95099.16
2023-03-08T06:02:17.473Z,95091.47
2023-03-08T06:04:57.088Z,95095.94
2023-03-08T06:07:25.871Z,95084.50
2023-03-08T06:09:56.780Z,95084.41
2023-03-08T06:12:24.151Z,95083.31
2023-03-08T06:14:54.434Z,95080.88
2023-03-08T06:17:23.655Z,95084.31
2023-03-08T06:19:51.752Z,95072.38
2023-03-08T06:22:18.715Z,95080.25
2023-03-08T06:24:49.663Z,95064.97
2023-03-08T06:27:20.624Z,95063.97
2023-03-08T06:29:50.946Z,95061.53
2023-03-08T06:32:18.680Z,95053.69
2023-03-08T06:34:47.089Z,95057.38
2023-03-08T06:37:14.619Z,95072.22
2023-03-08T06:39:41.426Z,95062.88
2023-03-08T06:42:08.161Z,95054.16
2023-03-08T06:44:35.337Z,95052.69
2023-03-08T06:47:02.092Z,95062.94
2023-03-08T06:49:28.864Z,95032.59
2023-03-08T06:51:55.514Z,95029.78
2023-03-08T06:54:24.267Z,95020.34
2023-03-08T06:56:51.076Z,94999.81
2023-03-08T06:59:17.669Z,94993.91
2023-03-08T07:01:44.412Z,94981.44
2023-03-08T07:04:11.092Z,94981.53
2023-03-08T07:06:37.730Z,94974.91
2023-03-08T07:09:04.789Z,94960.50
2023-03-08T07:11:32.312Z,94961.13
2023-03-08T07:13:59.378Z,94962.28
2023-03-08T07:16:26.368Z,94949.81
2023-03-08T07:18:53.346Z,94943.38
2023-03-08T07:21:19.997Z,94937.03
2023-03-08T07:23:46.567Z,94927.94
2023-03-08T07:26:13.196Z,94926.19
2023-03-08T07:28:40.081Z,94926.69
2023-03-08T07:31:10.020Z,94916.41
2023-03-08T07:33:36.648Z,94927.53
2023-03-08T07:36:03.540Z,94921.69
2023-03-08T07:38:30.580Z,94921.19
2023-03-08T07:40:57.730Z,94906.88
2023-03-08T07:43:24.409Z,94918.69
2023-03-08T07:46:00.501Z,94902.69
2023-03-08T07:48:27.345Z,94914.66
2023-03-08T07:50:54.176Z,94900.09
2023-03-08T07:53:20.838Z,94911.19
2023-03-08T07:55:47.483Z,94902.69
2023-03-08T07:58:14.235Z,94898.53
2023-03-08T08:00:40.915Z,94893.56
2023-03-08T08:03:07.615Z,94884.44
2023-03-08T08:05:36.528Z,94894.91
2023-03-08T08:08:03.683Z,94883.59
2023-03-08T08:10:30.300Z,94876.09
2023-03-08T08:12:56.895Z,94882.97
2023-03-08T08:15:25.316Z,94873.44
2023-03-08T08:17:52.602Z,94870.31
2023-03-08T08:20:19.189Z,94868.28
2023-03-08T08:22:45.769Z,94854.47
2023-03-08T08:25:12.375Z,94841.97
2023-03-08T08:27:38.972Z,94839.81
2023-03-08T08:30:06.315Z,94828.84
2023-03-08T08:32:35.284Z,94821.19
2023-03-08T08:35:01.962Z,94812.72
2023-03-08T08:37:30.682Z,94817.81
2023-03-08T08:39:57.291Z,94813.16
2023-03-08T08:42:24.140Z,94814.81
2023-03-08T08:44:53.029Z,94808.78
2023-03-08T08:47:19.957Z,94809.50
2023-03-08T08:49:46.714Z,94811.75
2023-03-08T08:52:13.303Z,94811.78
2023-03-08T08:54:40.154Z,94807.28
2023-03-08T08:57:07.170Z,94801.50
2023-03-08T08:59:33.778Z,94802.38
2023-03-08T09:02:00.472Z,94795.66
2023-03-08T09:04:27.206Z,94801.00
2023-03-08T09:06:54.285Z,94801.66
2023-03-08T09:09:21.166Z,94800.69
2023-03-08T09:11:55.152Z,94793.59
2023-03-08T09:14:22.961Z,94789.00
2023-03-08T09:16:49.654Z,94789.84
2023-03-08T09:19:16.334Z,94781.38
2023-03-08T09:21:42.996Z,94781.09
2023-03-08T09:24:11.594Z,94779.75
2023-03-08T09:26:38.213Z,94777.28
2023-03-08T09:29:07.206Z,94772.69
2023-03-08T09:31:35.868Z,94772.44
2023-03-08T09:34:04.763Z,94771.88
2023-03-08T09:36:31.563Z,94758.72
2023-03-08T09:38:58.155Z,94765.13
2023-03-08T09:41:43.019Z,94757.56
2023-03-08T09:44:21.303Z,94744.19
2023-03-08T09:47:04.721Z,94747.84
2023-03-08T09:49:33.059Z,94746.53
2023-03-08T09:52:11.124Z,94738.59
2023-03-08T09:54:39.150Z,94734.81
2023-03-08T09:57:12.808Z,94732.44
2023-03-08T09:59:55.902Z,94721.22
2023-03-08T10:03:04.132Z,94728.91
2023-03-08T10:05:46.063Z,94733.50
2023-03-08T10:08:26.112Z,94731.50
2023-03-08T10:11:01.754Z,94701.91
2023-03-08T10:13:42.957Z,94705.09
2023-03-08T10:16:16.491Z,94709.16
2023-03-08T10:18:54.937Z,94715.66
2023-03-08T10:21:25.351Z,94704.53
2023-03-08T10:24:07.244Z,94696.25
2023-03-08T10:26:34.606Z,94688.06
2023-03-08T10:29:01.208Z,94689.69
2023-03-08T10:31:30.691Z,94686.41
2023-03-08T10:34:19.745Z,94682.19
2023-03-08T10:36:51.291Z,94681.06
2023-03-08T10:39:18.488Z,94675.28
2023-03-08T10:41:49.813Z,94683.94
2023-03-08T10:44:36.846Z,94678.41
2023-03-08T10:47:23.779Z,94678.94
2023-03-08T10:50:11.043Z,94677.50
2023-03-08T10:52:37.664Z,94680.22
2023-03-08T10:55:16.622Z,94678.34
2023-03-08T10:57:54.057Z,94680.31
2023-03-08T11:00:20.907Z,94672.47
2023-03-08T11:02:48.433Z,94676.97
2023-03-08T11:05:26.493Z,94669.84
2023-03-08T11:07:55.828Z,94668.78
2023-03-08T11:10:25.601Z,94670.63
2023-03-08T11:13:01.824Z,94666.88
2023-03-08T11:15:30.988Z,94671.28
2023-03-08T11:17:57.532Z,94657.31
2023-03-08T11:20:31.672Z,94668.28
2023-03-08T11:23:12.796Z,94664.22
2023-03-08T11:25:45.516Z,94660.97
2023-03-08T11:28:24.723Z,94657.47
2023-03-08T11:31:15.328Z,94661.59
2023-03-08T11:33:42.461Z,94666.53
2023-03-08T11:36:13.405Z,94669.44
2023-03-08T11:38:40.853Z,94675.16
2023-03-08T11:41:44.407Z,94654.22
2023-03-08T11:44:39.298Z,94656.94
2023-03-08T11:47:11.669Z,94639.19
2023-03-08T11:50:06.129Z,94649.97
2023-03-08T11:53:02.269Z,94653.53
2023-03-08T11:55:50.587Z,94658.81
2023-03-08T11:58:23.003Z,94650.25
2023-03-08T12:00:55.113Z,94645.09
2023-03-08T12:03:29.301Z,94641.50
2023-03-08T12:05:59.432Z,94644.25
2023-03-08T12:08:41.853Z,94633.91
2023-03-08T12:11:16.866Z,94627.00
2023-03-08T12:14:21.028Z,94631.22
2023-03-08T12:16:52.363Z,94646.84
2023-03-08T12:19:45.301Z,94643.78
2023-03-08T12:22:33.653Z,94636.16
2023-03-08T12:25:25.302Z,94640.69
2023-03-08T12:28:13.616Z,94632.28
2023-03-08T12:30:52.114Z,94627.13
2023-03-08T12:33:19.250Z,94628.31
2023-03-08T12:36:02.990Z,94633.53
2023-03-08T12:38:42.833Z,94636.41
2023-03-08T12:41:24.507Z,94636.56
2023-03-08T12:44:26.800Z,94631.91
2023-03-08T12:47:03.430Z,94627.63
2023-03-08T12:49:35.292Z,94623.81
2023-03-08T12:52:21.869Z,94631.91
2023-03-08T12:55:02.499Z,94617.53
2023-03-08T12:57:36.351Z,94617.91
2023-03-08T13:00:10.656Z,94621.97
2023-03-08T13:02:43.820Z,94609.88
2023-03-08T13:05:31.493Z,94620.78
2023-03-08T13:08:07.807Z,94615.38
2023-03-08T13:10:38.883Z,94604.84
2023-03-08T13:13:23.918Z,94612.16
2023-03-08T13:16:06.954Z,94606.44
2023-03-08T13:18:34.066Z,94592.31
2023-03-08T13:21:34.744Z,94603.34
2023-03-08T13:24:21.676Z,94606.50
2023-03-08T13:27:10.563Z,94606.34
2023-03-08T13:29:37.560Z,94609.50
2023-03-08T13:32:14.028Z,94606.50
2023-03-08T13:34:41.838Z,94601.03
2023-03-08T13:37:21.484Z,94599.78
2023-03-08T13:39:54.102Z,94593.00
2023-03-08T13:42:24.880Z,94606.25
2023-03-08T13:44:53.191Z,94593.44
2023-03-08T13:47:32.985Z,94594.81
2023-03-08T13:50:00.117Z,94605.97
2023-03-08T13:52:32.004Z,94594.41
2023-03-08T13:55:02.083Z,94585.06
2023-03-08T13:57:49.963Z,94586.13
2023-03-08T14:00:19.401Z,94588.06
2023-03-08T14:02:51.359Z,94581.72
2023-03-08T14:05:23.308Z,94570.34
2023-03-08T14:08:00.720Z,94568.41
2023-03-08T14:10:36.985Z,94571.56
2023-03-08T14:13:05.652Z,94566.75
2023-03-08T14:15:38.099Z,94566.34
2023-03-08T14:18:08.223Z,94553.09
2023-03-08T14:20:34.949Z,94549.47
2023-03-08T14:23:01.675Z,94549.22
2023-03-08T14:25:31.370Z,94539.53
2023-03-08T14:27:59.023Z,94542.81
2023-03-08T14:30:28.704Z,94540.75
2023-03-08T14:33:41.737Z,94541.78
2023-03-08T14:36:10.024Z,94544.56
2023-03-08T14:38:36.936Z,94538.38
2023-03-08T14:41:07.946Z,94530.34
2023-03-08T14:43:34.914Z,94526.25
2023-03-08T14:46:06.990Z,94516.75
2023-03-08T14:48:35.978Z,94516.56
2023-03-08T14:51:04.124Z,94520.72
2023-03-08T14:53:36.431Z,94518.84
2023-03-08T14:56:07.492Z,94517.28
2023-03-08T14:58:39.283Z,94520.81
2023-03-08T15:01:05.964Z,94518.34
2023-03-08T15:03:33.155Z,94525.13
2023-03-08T15:06:07.592Z,94512.00
2023-03-08T15:08:34.274Z,94511.38
2023-03-08T15:11:00.904Z,94508.56
2023-03-08T15:13:27.600Z,94506.69
2023-03-08T15:15:54.332Z,94519.78
2023-03-08T15:18:21.487Z,94522.72
2023-03-08T15:20:50.778Z,94531.03
2023-03-08T15:23:25.205Z,94519.44
2023-03-08T15:25:51.795Z,94524.59
2023-03-08T15:28:21.084Z,94515.56
2023-03-08T15:30:48.659Z,94515.97
2023-03-08T15:33:15.346Z,94512.13
2023-03-08T15:35:42.287Z,94507.50
2023-03-08T15:38:13.707Z,94507.41
2023-03-08T15:40:40.761Z,94500.66
2023-03-08T15:43:07.553Z,94499.03
2023-03-08T15:45:34.337Z,94508.75
2023-03-08T15:48:11.356Z,94516.69
2023-03-08T15:50:39.589Z,94512.88
2023-03-08T15:53:06.761Z,94512.34
2023-03-08T15:55:33.704Z,94520.13
2023-03-08T15:58:00.537Z,94525.19
2023-03-08T16:00:28.110Z,94532.66
2023-03-08T16:03:05.754Z,94527.56
2023-03-08T16:05:32.778Z,94532.00
2023-03-08T16:08:03.117Z,94523.31
2023-03-08T16:10:37.537Z,94550.66
2023-03-08T16:13:04.122Z,94566.13
2023-03-08T16:15:30.730Z,94566.63
2023-03-08T16:17:57.287Z,94579.53
2023-03-08T16:20:24.636Z,94556.03
2023-03-08T16:22:51.445Z,94561.91
2023-03-08T16:25:18.456Z,94556.69
2023-03-08T16:27:45.066Z,94556.50
2023-03-08T16:30:13.083Z,94554.88
2023-03-08T16:32:39.881Z,94532.00
2023-03-08T16:35:06.703Z,94558.13
2023-03-08T16:37:33.338Z,94575.72
2023-03-08T16:40:02.153Z,94553.28
2023-03-08T16:42:29.785Z,94559.00
2023-03-08T16:44:56.509Z,94562.38
2023-03-08T16:47:24.089Z,94563.22
2023-03-08T16:49:50.856Z,94562.69
2023-03-08T16:52:18.144Z,94566.81
2023-03-08T16:54:45.033Z,94572.03
2023-03-08T16:57:19.149Z,94584.66
2023-03-08T16:59:46.840Z,94584.78
2023-03-08T17:02:19.583Z,94586.81
2023-03-08T17:04:47.361Z,94583.63
2023-03-08T17:07:14.536Z,94582.97
2023-03-08T17:09:41.365Z,94578.19
2023-03-08T17:12:09.198Z,94567.19
2023-03-08T17:14:36.507Z,94564.59
2023-03-08T17:17:04.363Z,94556.22
2023-03-08T17:19:31.096Z,94556.66
2023-03-08T17:21:57.710Z,94553.50
2023-03-08T17:24:27.350Z,94553.09
2023-03-08T17:26:54.217Z,94540.59
2023-03-08T17:29:21.861Z,94535.25
2023-03-08T17:31:48.745Z,94533.31
2023-03-08T17:34:16.017Z,94532.06
2023-03-08T17:36:43.430Z,94540.50
2023-03-08T17:39:10.325Z,94542.13
2023-03-08T17:41:38.628Z,94543.78
2023-03-08T17:44:05.631Z,94548.72
2023-03-08T17:46:32.533Z,94544.47
2023-03-08T17:48:59.180Z,94548.47
2023-03-08T17:51:28.309Z,94549.97
2023-03-08T17:53:56.127Z,94567.59
2023-03-08T17:56:26.446Z,94570.19
2023-03-08T17:58:54.689Z,94570.59
2023-03-08T18:01:24.555Z,94583.66
2023-03-08T18:03:52.364Z,94590.97
2023-03-08T18:06:24.916Z,94593.13
2023-03-08T18:08:51.782Z,94586.94
2023-03-08T18:11:18.384Z,94599.19
2023-03-08T18:13:45.074Z,94600.97
2023-03-08T18:16:11.803Z,94586.94
2023-03-08T18:18:38.624Z,94587.50
2023-03-08T18:21:13.216Z,94583.91
2023-03-08T18:23:42.682Z,94588.84
2023-03-08T18:26:14.083Z,94603.13
2023-03-08T18:28:40.835Z,94605.19
2023-03-08T18:31:14.752Z,94604.63
2023-03-08T18:33:41.982Z,94599.13
2023-03-08T18:36:09.226Z,94604.50
2023-03-08T18:38:36.818Z,94611.22
2023-03-08T18:41:23.847Z,94608.06
2023-03-08T18:43:51.435Z,94604.06
2023-03-08T18:46:18.851Z,94604.47
2023-03-08T18:48:50.994Z,94606.50
2023-03-08T18:51:17.893Z,94604.47
2023-03-08T18:53:44.707Z,94598.97
2023-03-08T18:56:11.955Z,94598.44
2023-03-08T18:58:38.760Z,94607.34
2023-03-08T19:01:12.567Z,94596.50
2023-03-08T19:03:40.362Z,94595.13
2023-03-08T19:06:07.550Z,94597.19
2023-03-08T19:08:34.807Z,94587.69
2023-03-08T19:11:19.429Z,94583.69
2023-03-08T19:13:47.860Z,94572.59
2023-03-08T19:16:22.409Z,94561.47
2023-03-08T19:18:52.434Z,94567.66
2023-03-08T19:21:22.342Z,94565.72
2023-03-08T19:23:49.772Z,94566.97
2023-03-08T19:26:37.186Z,94562.06
2023-03-08T19:29:09.028Z,94559.53
2023-03-08T19:31:40.927Z,94557.50
2023-03-08T19:34:08.276Z,94562.84
2023-03-08T19:36:35.965Z,94569.16
2023-03-08T19:39:08.681Z,94585.63
2023-03-08T19:41:35.619Z,94585.19
2023-03-08T19:44:07.129Z,94589.41
2023-03-08T19:46:35.760Z,94588.97
2023-03-08T19:49:03.550Z,94593.50
2023-03-08T19:51:30.226Z,94595.31
2023-03-08T19:53:57.009Z,94603.38
2023-03-08T19:56:25.023Z,94604.63
2023-03-08T19:58:53.721Z,94606.41
2023-03-08T20:01:20.530Z,94600.66
2023-03-08T20:03:48.387Z,94601.53
2023-03-08T20:06:24.104Z,94599.63
2023-03-08T20:08:51.764Z,94589.06
2023-03-08T20:11:18.562Z,94588.25
2023-03-08T20:13:45.660Z,94582.94
2023-03-08T20:16:13.289Z,94573.19
2023-03-08T20:18:40.482Z,94584.75
2023-03-08T20:21:07.599Z,94579.22
2023-03-08T20:23:35.489Z,94573.03
2023-03-08T20:26:04.097Z,94566.59
2023-03-08T20:28:31.337Z,94565.22
2023-03-08T20:30:58.526Z,94564.09
2023-03-08T20:33:25.898Z,94571.25
2023-03-08T20:35:58.200Z,94574.56
2023-03-08T20:38:25.934Z,94561.91
2023-03-08T20:41:00.179Z,94568.94
2023-03-08T20:43:27.894Z,94575.13
2023-03-08T20:45:54.903Z,94568.50
2023-03-08T20:48:22.329Z,94569.22
2023-03-08T20:50:50.412Z,94571.81
2023-03-08T20:53:17.397Z,94571.38
2023-03-08T20:55:44.586Z,94565.47
2023-03-08T20:58:11.523Z,94574.53
2023-03-08T21:00:41.146Z,94567.16
2023-03-08T21:03:08.342Z,94563.28
2023-03-08T21:05:36.296Z,94567.00
2023-03-08T21:08:04.475Z,94561.25
2023-03-08T21:10:36.865Z,94556.28
2023-03-08T21:13:06.117Z,94547.34
2023-03-08T21:15:35.155Z,94552.72
2023-03-08T21:18:02.399Z,94547.34
2023-03-08T21:20:29.283Z,94534.00
2023-03-08T21:22:56.325Z,94527.00
2023-03-08T21:25:23.057Z,94533.72
2023-03-08T21:27:49.619Z,94530.84
2023-03-08T21:30:16.300Z,94521.22
2023-03-08T21:32:42.939Z,94530.84
2023-03-08T21:35:10.433Z,94507.34
2023-03-08T21:37:37.440Z,94512.13
2023-03-08T21:40:07.200Z,94512.28
2023-03-08T21:42:33.871Z,94509.81
2023-03-08T21:45:01.144Z,94500.47
2023-03-08T21:47:28.194Z,94488.75
2023-03-08T21:49:55.468Z,94494.78
2023-03-08T21:52:22.457Z,94496.88
2023-03-08T21:54:49.420Z,94484.09
2023-03-08T21:57:16.516Z,94482.00
2023-03-08T21:59:43.478Z,94474.31
2023-03-08T22:02:10.986Z,94482.66
2023-03-08T22:04:38.730Z,94484.59
2023-03-08T22:07:05.295Z,94473.31
2023-03-08T22:09:32.343Z,94481.31
2023-03-08T22:11:59.625Z,94459.00
2023-03-08T22:14:26.921Z,94465.31
2023-03-08T22:16:56.705Z,94466.66
2023-03-08T22:19:23.689Z,94458.63
2023-03-08T22:21:50.920Z,94451.63
2023-03-08T22:24:18.183Z,94447.47
2023-03-08T22:26:45.072Z,94446.69
2023-03-08T22:29:12.196Z,94436.47
2023-03-08T22:31:38.985Z,94435.22
2023-03-08T22:34:07.925Z,94433.28
2023-03-08T22:36:35.151Z,94430.66
2023-03-08T22:39:02.466Z,94430.13
2023-03-08T22:41:29.778Z,94430.72
2023-03-08T22:43:56.886Z,94419.44
2023-03-08T22:46:26.816Z,94412.63
2023-03-08T22:48:56.459Z,94424.16
2023-03-08T22:51:24.073Z,94424.56
2023-03-08T22:53:50.695Z,94424.09
2023-03-08T22:56:26.774Z,94434.97
2023-03-08T22:58:53.470Z,94433.84
2023-03-08T23:01:22.531Z,94431.66
2023-03-08T23:03:50.222Z,94434.28
2023-03-08T23:06:18.138Z,94425.31
2023-03-08T23:08:45.330Z,94418.59
2023-03-08T23:11:12.408Z,94424.47
2023-03-08T23:13:39.113Z,94413.13
2023-03-08T23:16:08.929Z,94417.53
2023-03-08T23:18:35.784Z,94419.50
2023-03-08T23:21:04.593Z,94414.53
2023-03-08T23:23:32.009Z,94410.41
2023-03-08T23:25:58.975Z,94403.78
2023-03-08T23:28:25.613Z,94402.50
2023-03-08T23:30:52.185Z,94407.16
2023-03-08T23:33:18.795Z,94402.13
2023-03-08T23:35:49.711Z,94399.78
2023-03-08T23:38:16.434Z,94400.78
2023-03-08T23:40:43.146Z,94403.53
2023-03-08T23:43:09.832Z,94395.84
2023-03-08T23:45:39.178Z,94386.53
2023-03-08T23:48:06.156Z,94386.41
2023-03-08T23:50:33.074Z,94389.69
2023-03-08T23:52:59.667Z,94384.69
2023-03-08T23:55:26.281Z,94393.56
2023-03-08T23:57:52.857Z,94379.84
